Time;durP1;ratioP1;P1;durP2;ratioP2;P2;SDS_P1;SDS_P2;PMS_P1;PMS_P2;Temp;Humidity;BMP_temperature;BMP_pressure;BME280_temperature;BME280_humidity;BME280_pressure;Samples;Min_cycle;Max_cycle;Signal;HPM_P1;HPM_P2
2023/08/06 07:37:17;;;;;;;;;0.67;0.33;;;;;;;;5105340;27;13410;-73
2023/08/06 07:39:42;;;;;;;;;1.00;0.00;;;;;;;;5112681;27;9941;-69
2023/08/06 07:42:08;;;;;;;;;1.00;0.00;;;;;;;;5087909;28;8837;-70
2023/08/06 07:44:33;;;;;;;;;2.00;0.00;;;;;;;;5088169;28;8833;-71
2023/08/06 07:46:58;;;;;;;;;0.00;0.00;;;;;;;;5075005;28;8862;-73
2023/08/06 07:49:24;;;;;;;;;2.00;1.00;;;;;;;;5066623;28;8835;-73
2023/08/06 07:51:51;;;;;;;;;0.00;0.00;;;;;;;;5067695;28;9642;-73
2023/08/06 07:54:16;;;;;;;;;0.00;0.00;;;;;;;;5067946;28;8817;-77
2023/08/06 07:56:42;;;;;;;;;1.00;1.00;;;;;;;;5067945;28;8948;-81
2023/08/06 07:59:07;;;;;;;;;1.00;1.00;;;;;;;;5067098;28;8936;-80
2023/08/06 08:01:32;;;;;;;;;0.00;0.00;;;;;;;;5067769;28;8831;-75
2023/08/06 08:03:57;;;;;;;;;1.00;1.00;;;;;;;;5066453;28;8813;-76
2023/08/06 08:06:23;;;;;;;;;1.00;1.00;;;;;;;;5067763;28;8866;-78
2023/08/06 08:08:48;;;;;;;;;0.67;0.67;;;;;;;;5067641;28;8828;-80
2023/08/06 08:11:15;;;;;;;;;0.00;0.00;;;;;;;;5067516;28;8801;-76
2023/08/06 08:13:40;;;;;;;;;0.00;0.00;;;;;;;;5066221;28;9585;-75
2023/08/06 08:16:05;;;;;;;;;2.00;1.00;;;;;;;;5067460;28;8829;-77
2023/08/06 08:18:31;;;;;;;;;0.00;0.00;;;;;;;;5067411;28;8913;-77
2023/08/06 08:20:56;;;;;;;;;1.33;0.00;;;;;;;;5067386;28;8789;-79
2023/08/06 08:23:22;;;;;;;;;3.00;1.67;;;;;;;;5067194;28;10296;-73
2023/08/06 08:25:47;;;;;;;;;1.00;1.00;;;;;;;;5083205;28;9551;-77
2023/08/06 08:28:13;;;;;;;;;1.33;1.00;;;;;;;;5066188;28;8813;-75
2023/08/06 08:30:41;;;;;;;;;2.00;2.00;;;;;;;;5069054;28;8825;-73
2023/08/06 08:33:07;;;;;;;;;1.00;1.00;;;;;;;;5076242;28;8952;-73
2023/08/06 08:35:33;;;;;;;;;2.00;1.00;;;;;;;;5077038;28;8836;-73
2023/08/06 08:37:58;;;;;;;;;2.00;2.00;;;;;;;;5086783;28;8835;-73
2023/08/06 08:40:29;;;;;;;;;1.33;1.33;;;;;;;;5086645;28;8869;-71
2023/08/06 08:42:55;;;;;;;;;3.00;2.50;;;;;;;;5086853;28;8800;-73
2023/08/06 08:45:22;;;;;;;;;2.00;2.00;;;;;;;;5067561;28;9017;-73
2023/08/06 08:47:47;;;;;;;;;2.00;1.00;;;;;;;;5077878;28;8827;-74
2023/08/06 08:50:14;;;;;;;;;4.00;2.00;;;;;;;;5073423;28;8911;-72
2023/08/06 08:52:45;;;;;;;;;2.75;2.00;;;;;;;;5073323;28;8800;-76
2023/08/06 08:55:11;;;;;;;;;2.60;2.60;;;;;;;;4949339;28;11450;-77
2023/08/06 08:57:36;;;;;;;;;3.00;2.00;;;;;;;;4910877;28;73328;-75
2023/08/06 09:00:02;;;;;;;;;2.33;2.00;;;;;;;;5011757;28;10123;-80
2023/08/06 09:02:29;;;;;;;;;2.50;1.00;;;;;;;;5009976;28;8809;-76
2023/08/06 09:04:56;;;;;;;;;2.20;2.00;;;;;;;;5068201;28;8845;-77
2023/08/06 09:07:22;;;;;;;;;3.00;2.40;;;;;;;;5073061;28;8813;-75
2023/08/06 09:09:49;;;;;;;;;3.40;1.80;;;;;;;;5068248;28;8919;-77
2023/08/06 09:12:15;;;;;;;;;1.00;1.00;;;;;;;;5066161;28;8913;-76
2023/08/06 09:14:40;;;;;;;;;3.75;3.75;;;;;;;;5053813;28;8971;-75
2023/08/06 09:17:06;;;;;;;;;3.75;3.00;;;;;;;;5060573;28;8836;-75
2023/08/06 09:19:31;;;;;;;;;2.00;2.00;;;;;;;;5064306;28;8916;-75
2023/08/06 09:21:57;;;;;;;;;2.00;2.00;;;;;;;;5072796;28;8805;-74
2023/08/06 09:24:22;;;;;;;;;2.00;1.75;;;;;;;;5072833;28;8805;-76
2023/08/06 09:26:47;;;;;;;;;1.75;1.75;;;;;;;;5020734;28;8814;-76
2023/08/06 09:29:13;;;;;;;;;4.00;2.00;;;;;;;;5015048;28;8822;-76
2023/08/06 09:31:42;;;;;;;;;3.33;2.00;;;;;;;;5051681;28;8855;-77
2023/08/06 09:34:12;;;;;;;;;3.00;3.00;;;;;;;;5061138;28;8825;-79
2023/08/06 09:36:47;;;;;;;;;4.00;3.00;;;;;;;;5044199;28;8891;-80
2023/08/06 09:39:13;;;;;;;;;4.00;3.00;;;;;;;;5061926;28;8821;-78
2023/08/06 09:41:39;;;;;;;;;5.00;2.00;;;;;;;;5059962;28;8816;-77
2023/08/06 09:44:04;;;;;;;;;2.50;2.25;;;;;;;;5061155;28;11624;-78
2023/08/06 09:46:31;;;;;;;;;4.00;3.00;;;;;;;;5057125;28;8903;-77
2023/08/06 09:48:57;;;;;;;;;4.75;3.00;;;;;;;;5052391;28;8802;-77
2023/08/06 09:51:22;;;;;;;;;4.33;4.00;;;;;;;;5052111;28;8799;-76
2023/08/06 09:53:48;;;;;;;;;5.67;5.00;;;;;;;;5052180;28;9504;-76
2023/08/06 09:56:15;;;;;;;;;1.50;1.50;;;;;;;;5043137;28;8843;-80
2023/08/06 09:58:41;;;;;;;;;2.25;2.25;;;;;;;;5065716;28;9535;-78
2023/08/06 10:01:07;;;;;;;;;2.00;2.00;;;;;;;;5070952;28;8835;-70
2023/08/06 10:03:33;;;;;;;;;2.50;2.00;;;;;;;;5053178;28;8817;-67
2023/08/06 10:06:02;;;;;;;;;2.00;2.00;;;;;;;;5072010;28;8809;-70
2023/08/06 10:08:27;;;;;;;;;4.75;3.00;;;;;;;;5071856;28;9481;-69
2023/08/06 10:10:53;;;;;;;;;2.00;2.00;;;;;;;;5072015;28;8834;-69
2023/08/06 10:13:19;;;;;;;;;2.00;2.00;;;;;;;;5072055;28;8900;-71
2023/08/06 10:15:44;;;;;;;;;5.00;2.00;;;;;;;;5070240;28;9629;-72
2023/08/06 10:18:11;;;;;;;;;3.33;3.00;;;;;;;;5051704;28;11497;-71
2023/08/06 10:20:36;;;;;;;;;3.00;2.00;;;;;;;;5033506;28;8949;-71
2023/08/06 10:23:03;;;;;;;;;5.67;3.00;;;;;;;;5031478;28;8921;-71
2023/08/06 10:25:32;;;;;;;;;3.25;3.00;;;;;;;;5031578;28;8810;-71
2023/08/06 10:27:57;;;;;;;;;2.50;2.00;;;;;;;;5013917;28;8854;-71
2023/08/06 10:30:23;;;;;;;;;6.00;6.00;;;;;;;;5020265;28;8847;-71
2023/08/06 10:32:53;;;;;;;;;3.00;3.00;;;;;;;;5035802;28;8815;-72
2023/08/06 10:35:31;;;;;;;;;3.00;3.00;;;;;;;;5031115;28;8842;-72
2023/08/06 10:38:15;;;;;;;;;3.25;2.50;;;;;;;;5013595;28;8810;-71
2023/08/06 10:40:41;;;;;;;;;47.50;37.25;;;;;;;;5031478;28;8814;-71
2023/08/06 10:43:07;;;;;;;;;3.33;2.33;;;;;;;;5031494;28;9582;-71
2023/08/06 10:45:37;;;;;;;;;2.00;2.00;;;;;;;;5031335;28;8822;-71
2023/08/06 10:48:02;;;;;;;;;2.00;1.75;;;;;;;;5031380;28;9653;-74
2023/08/06 10:50:27;;;;;;;;;2.00;2.00;;;;;;;;5013243;28;8970;-71
2023/08/06 10:52:53;;;;;;;;;3.00;3.00;;;;;;;;5031095;28;8798;-73
2023/08/06 10:55:22;;;;;;;;;2.00;2.00;;;;;;;;5031197;28;8937;-76
2023/08/06 10:57:48;;;;;;;;;3.75;2.00;;;;;;;;5015781;28;8871;-72
2023/08/06 11:00:13;;;;;;;;;3.33;3.00;;;;;;;;5039539;28;8822;-72
2023/08/06 11:02:39;;;;;;;;;2.00;2.00;;;;;;;;5030867;28;8810;-72
2023/08/06 11:05:08;;;;;;;;;1.67;1.00;;;;;;;;5030777;28;8803;-71
2023/08/06 11:07:33;;;;;;;;;3.00;1.00;;;;;;;;5030914;28;8831;-70
2023/08/06 11:10:06;;;;;;;;;2.00;2.00;;;;;;;;5032977;28;8811;-71
2023/08/06 11:12:32;;;;;;;;;3.00;3.00;;;;;;;;5039603;28;8829;-71
2023/08/06 11:14:57;;;;;;;;;2.00;2.00;;;;;;;;5030754;28;8790;-71
2023/08/06 11:17:22;;;;;;;;;3.00;2.33;;;;;;;;5027614;28;11552;-76
2023/08/06 11:19:48;;;;;;;;;4.00;4.00;;;;;;;;5050429;28;8808;-76
2023/08/06 11:22:14;;;;;;;;;2.00;2.00;;;;;;;;5050522;28;8922;-79
2023/08/06 11:24:39;;;;;;;;;5.25;2.50;;;;;;;;5050720;28;8803;-78
2023/08/06 11:27:11;;;;;;;;;2.00;2.00;;;;;;;;5050708;28;9519;-74
2023/08/06 11:29:38;;;;;;;;;2.25;2.25;;;;;;;;5032564;28;8850;-73
2023/08/06 11:32:04;;;;;;;;;3.00;3.00;;;;;;;;5050619;28;8792;-74
2023/08/06 11:34:29;;;;;;;;;3.25;3.25;;;;;;;;5050282;28;8788;-72
2023/08/06 11:36:56;;;;;;;;;4.33;4.00;;;;;;;;5050154;28;8889;-69
2023/08/06 11:39:22;;;;;;;;;3.00;2.00;;;;;;;;5052376;28;8812;-71
2023/08/06 11:41:48;;;;;;;;;2.67;1.33;;;;;;;;5058717;28;8847;-73
2023/08/06 11:44:13;;;;;;;;;3.00;2.00;;;;;;;;5060406;28;8821;-71
2023/08/06 11:46:52;;;;;;;;;1.00;1.00;;;;;;;;5040119;28;8844;-71
2023/08/06 11:49:21;;;;;;;;;2.00;2.00;;;;;;;;5049509;28;8825;-71
2023/08/06 11:51:46;;;;;;;;;2.00;2.00;;;;;;;;5041250;28;8835;-70
2023/08/06 11:54:11;;;;;;;;;2.00;2.00;;;;;;;;5061338;28;8979;-70
2023/08/06 11:56:36;;;;;;;;;2.00;2.00;;;;;;;;5041729;28;8863;-70
2023/08/06 11:59:02;;;;;;;;;1.67;1.67;;;;;;;;5059164;28;8892;-70
2023/08/06 12:01:27;;;;;;;;;4.00;1.00;;;;;;;;5060634;28;8825;-67
2023/08/06 12:03:58;;;;;;;;;2.00;1.67;;;;;;;;5065016;28;8848;-71
2023/08/06 12:06:26;;;;;;;;;2.00;2.00;;;;;;;;5070202;28;8794;-71
2023/08/06 12:08:51;;;;;;;;;1.25;1.25;;;;;;;;5070083;28;8789;-73
2023/08/06 12:11:17;;;;;;;;;4.00;2.00;;;;;;;;5070013;28;9567;-72
2023/08/06 12:13:42;;;;;;;;;2.00;1.00;;;;;;;;5060977;28;8813;-74
2023/08/06 12:16:07;;;;;;;;;3.00;3.00;;;;;;;;5057594;28;8845;-74
2023/08/06 12:18:33;;;;;;;;;5.67;1.33;;;;;;;;5059548;28;8801;-70
2023/08/06 12:20:58;;;;;;;;;2.00;1.00;;;;;;;;5059729;28;8784;-71
2023/08/06 12:23:23;;;;;;;;;3.00;2.00;;;;;;;;5060110;28;8820;-71
2023/08/06 12:25:49;;;;;;;;;3.00;2.00;;;;;;;;5061670;28;8805;-72
2023/08/06 12:28:14;;;;;;;;;1.00;1.00;;;;;;;;5057156;28;8831;-70
2023/08/06 12:30:42;;;;;;;;;7.33;6.33;;;;;;;;5042919;28;9642;-69
2023/08/06 12:33:09;;;;;;;;;5.00;4.25;;;;;;;;5063010;28;8831;-67
2023/08/06 12:35:34;;;;;;;;;7.00;7.00;;;;;;;;5061885;28;8847;-69
2023/08/06 12:37:59;;;;;;;;;6.00;4.33;;;;;;;;5062848;28;8801;-69
2023/08/06 12:40:25;;;;;;;;;1.00;1.00;;;;;;;;5063524;28;8784;-69
2023/08/06 12:42:50;;;;;;;;;0.00;0.00;;;;;;;;5061848;28;8819;-68
2023/08/06 12:45:16;;;;;;;;;2.00;1.67;;;;;;;;5063477;28;8785;-68
2023/08/06 12:47:41;;;;;;;;;2.33;2.33;;;;;;;;5043171;28;8820;-69
2023/08/06 12:50:06;;;;;;;;;4.00;3.00;;;;;;;;5061818;28;8788;-69
2023/08/06 12:52:32;;;;;;;;;4.00;4.00;;;;;;;;5058879;28;8916;-69
2023/08/06 12:54:57;;;;;;;;;3.00;3.00;;;;;;;;5062808;28;8805;-69
2023/08/06 12:57:23;;;;;;;;;3.00;2.00;;;;;;;;5063156;28;8824;-68
2023/08/06 12:59:48;;;;;;;;;4.67;2.33;;;;;;;;5043418;28;8866;-68
2023/08/06 13:02:13;;;;;;;;;5.33;4.67;;;;;;;;5061801;28;8934;-69
2023/08/06 13:04:39;;;;;;;;;5.00;4.00;;;;;;;;5060547;28;8817;-69
2023/08/06 13:07:06;;;;;;;;;3.25;3.00;;;;;;;;5063766;28;8831;-68
2023/08/06 13:09:32;;;;;;;;;5.00;3.50;;;;;;;;5061406;28;8836;-68
2023/08/06 13:11:57;;;;;;;;;5.00;3.33;;;;;;;;5051421;28;8828;-67
2023/08/06 13:14:23;;;;;;;;;6.00;3.00;;;;;;;;5073124;28;8797;-70
2023/08/06 13:16:48;;;;;;;;;5.00;3.00;;;;;;;;5062716;28;8832;-72
2023/08/06 13:19:13;;;;;;;;;7.00;5.00;;;;;;;;5052914;28;8903;-68
2023/08/06 13:21:41;;;;;;;;;2.00;2.00;;;;;;;;5057966;28;8892;-68
2023/08/06 13:24:07;;;;;;;;;2.00;2.00;;;;;;;;5063087;28;9598;-69
2023/08/06 13:26:32;;;;;;;;;2.67;2.33;;;;;;;;5061553;28;8797;-69
2023/08/06 13:28:58;;;;;;;;;4.00;3.00;;;;;;;;5061897;28;8801;-69
2023/08/06 13:31:23;;;;;;;;;4.00;4.00;;;;;;;;5063037;28;8821;-69
2023/08/06 13:33:49;;;;;;;;;5.00;3.67;;;;;;;;5060940;28;8811;-68
2023/08/06 13:36:15;;;;;;;;;4.50;4.50;;;;;;;;5061917;28;8833;-68
2023/08/06 13:38:40;;;;;;;;;5.67;5.00;;;;;;;;5059331;28;8873;-68
2023/08/06 13:41:06;;;;;;;;;4.33;4.33;;;;;;;;5061314;28;8780;-68
2023/08/06 13:43:31;;;;;;;;;4.00;4.00;;;;;;;;5062420;28;8793;-69
2023/08/06 13:45:57;;;;;;;;;3.33;1.67;;;;;;;;5060086;28;9755;-68
2023/08/06 13:48:22;;;;;;;;;6.25;4.50;;;;;;;;5062679;28;8812;-68
2023/08/06 13:50:47;;;;;;;;;3.00;2.67;;;;;;;;5063491;28;8814;-69
2023/08/06 13:53:13;;;;;;;;;4.00;4.00;;;;;;;;5072019;28;8815;-69
2023/08/06 13:55:38;;;;;;;;;5.33;4.00;;;;;;;;5071920;28;8921;-68
2023/08/06 13:58:03;;;;;;;;;3.00;3.00;;;;;;;;5072156;28;8839;-68
2023/08/06 14:00:28;;;;;;;;;4.00;4.00;;;;;;;;5054064;28;8937;-68
2023/08/06 14:02:54;;;;;;;;;3.00;3.00;;;;;;;;5072282;28;9552;-68
2023/08/06 14:05:19;;;;;;;;;2.67;2.67;;;;;;;;5071956;28;9613;-67
2023/08/06 14:07:44;;;;;;;;;2.67;1.33;;;;;;;;5071815;28;8814;-67
2023/08/06 14:10:10;;;;;;;;;2.00;2.00;;;;;;;;5071713;28;8789;-68
2023/08/06 14:12:35;;;;;;;;;6.00;6.00;;;;;;;;5071794;28;8797;-68
2023/08/06 14:15:02;;;;;;;;;4.00;4.00;;;;;;;;5053891;28;8882;-68
2023/08/06 14:17:28;;;;;;;;;4.50;4.50;;;;;;;;5043318;28;9583;-68
2023/08/06 14:19:53;;;;;;;;;7.33;4.00;;;;;;;;5066561;28;8832;-67
2023/08/06 14:22:18;;;;;;;;;3.67;3.00;;;;;;;;5071466;28;9980;-68
2023/08/06 14:24:43;;;;;;;;;4.00;3.00;;;;;;;;5052806;28;8851;-68
2023/08/06 14:27:09;;;;;;;;;4.00;4.00;;;;;;;;5052838;28;8850;-69
2023/08/06 14:29:34;;;;;;;;;5.67;4.00;;;;;;;;5071757;28;8809;-68
2023/08/06 14:31:59;;;;;;;;;3.67;3.67;;;;;;;;5071597;28;8777;-70
2023/08/06 14:34:24;;;;;;;;;4.67;4.00;;;;;;;;5058802;28;8828;-70
2023/08/06 14:36:50;;;;;;;;;3.67;2.00;;;;;;;;5051074;28;8836;-71
2023/08/06 14:39:15;;;;;;;;;3.00;3.00;;;;;;;;5033554;28;8812;-70
2023/08/06 14:41:40;;;;;;;;;4.67;4.00;;;;;;;;5051348;28;8820;-69
2023/08/06 14:44:07;;;;;;;;;4.33;3.00;;;;;;;;5051302;28;8796;-69
2023/08/06 14:46:32;;;;;;;;;6.25;4.50;;;;;;;;5050394;28;8950;-69
2023/08/06 14:48:57;;;;;;;;;7.33;4.33;;;;;;;;5051012;28;8942;-69
2023/08/06 14:51:23;;;;;;;;;4.00;3.00;;;;;;;;5051036;28;8804;-69
2023/08/06 14:53:48;;;;;;;;;3.67;3.67;;;;;;;;5050881;28;8959;-68
2023/08/06 14:56:13;;;;;;;;;3.00;3.00;;;;;;;;5050907;28;8816;-68
2023/08/06 14:58:39;;;;;;;;;2.00;1.00;;;;;;;;5033125;28;8890;-68
2023/08/06 15:01:04;;;;;;;;;6.67;4.00;;;;;;;;5033160;28;8819;-68
2023/08/06 15:03:31;;;;;;;;;3.33;2.67;;;;;;;;5051067;28;8807;-68
2023/08/06 15:05:56;;;;;;;;;4.75;3.00;;;;;;;;5051043;28;8807;-71
2023/08/06 15:08:21;;;;;;;;;3.67;2.00;;;;;;;;5050648;28;8816;-70
2023/08/06 15:10:51;;;;;;;;;4.67;3.00;;;;;;;;5051028;28;8808;-70
2023/08/06 15:13:16;;;;;;;;;3.25;3.25;;;;;;;;5032994;28;8942;-67
2023/08/06 15:15:42;;;;;;;;;2.67;2.67;;;;;;;;5047189;28;8965;-68
2023/08/06 15:18:07;;;;;;;;;6.67;5.00;;;;;;;;5050750;28;8812;-68
2023/08/06 15:20:33;;;;;;;;;6.67;2.33;;;;;;;;5050573;28;8791;-68
2023/08/06 15:22:58;;;;;;;;;5.00;2.00;;;;;;;;5050427;28;9614;-68
2023/08/06 15:25:23;;;;;;;;;4.67;3.00;;;;;;;;5050629;28;8812;-68
2023/08/06 15:27:49;;;;;;;;;4.33;4.33;;;;;;;;5050579;28;8788;-69
2023/08/06 15:30:14;;;;;;;;;3.00;2.67;;;;;;;;5050348;28;8804;-69
2023/08/06 15:32:44;;;;;;;;;2.00;2.00;;;;;;;;5050255;28;8792;-71
2023/08/06 15:35:09;;;;;;;;;3.00;2.75;;;;;;;;5063852;28;8944;-71
2023/08/06 15:37:34;;;;;;;;;1.33;1.00;;;;;;;;5072032;28;9026;-73
2023/08/06 15:40:00;;;;;;;;;1.67;1.67;;;;;;;;5090183;28;8788;-73
2023/08/06 15:42:25;;;;;;;;;1.00;1.00;;;;;;;;5092656;28;10915;-72
2023/08/06 15:44:50;;;;;;;;;2.00;1.33;;;;;;;;5090765;28;8776;-72
2023/08/06 15:47:15;;;;;;;;;2.33;1.67;;;;;;;;5076353;28;8849;-70
2023/08/06 15:49:41;;;;;;;;;3.00;2.67;;;;;;;;5052284;28;8835;-71
2023/08/06 15:52:06;;;;;;;;;3.00;1.00;;;;;;;;5070350;28;8785;-70
2023/08/06 15:54:31;;;;;;;;;4.33;2.00;;;;;;;;5070040;28;8927;-70
2023/08/06 15:56:57;;;;;;;;;3.33;1.33;;;;;;;;5050728;28;8852;-69
2023/08/06 15:59:23;;;;;;;;;2.67;2.00;;;;;;;;5072920;28;8785;-69
2023/08/06 16:01:49;;;;;;;;;4.50;2.50;;;;;;;;5073496;28;9570;-69
2023/08/06 16:04:14;;;;;;;;;4.00;4.00;;;;;;;;5073443;28;8797;-70
2023/08/06 16:06:39;;;;;;;;;1.00;1.00;;;;;;;;5073334;28;8801;-69
2023/08/06 16:09:04;;;;;;;;;1.67;1.67;;;;;;;;5072371;28;8821;-69
2023/08/06 16:11:30;;;;;;;;;4.00;2.33;;;;;;;;5054345;28;8821;-69
2023/08/06 16:13:55;;;;;;;;;1.00;1.00;;;;;;;;5055072;28;8801;-69
2023/08/06 16:16:20;;;;;;;;;3.67;3.00;;;;;;;;5069715;28;8867;-69
2023/08/06 16:18:45;;;;;;;;;2.33;2.33;;;;;;;;5058745;28;8784;-68
2023/08/06 16:21:11;;;;;;;;;3.67;2.00;;;;;;;;5052473;28;8772;-74
2023/08/06 16:23:37;;;;;;;;;4.75;2.50;;;;;;;;5052892;28;8761;-71
2023/08/06 16:26:02;;;;;;;;;2.33;1.00;;;;;;;;5054524;28;8802;-68
2023/08/06 16:28:28;;;;;;;;;3.67;1.00;;;;;;;;5052792;28;8822;-72
2023/08/06 16:30:54;;;;;;;;;4.00;3.00;;;;;;;;5051896;28;8791;-72
2023/08/06 16:33:19;;;;;;;;;1.00;1.00;;;;;;;;5052594;28;8784;-72
2023/08/06 16:35:44;;;;;;;;;2.33;2.00;;;;;;;;5053772;28;8888;-69
2023/08/06 16:38:11;;;;;;;;;2.33;1.67;;;;;;;;5053617;28;8764;-69
2023/08/06 16:40:36;;;;;;;;;2.50;2.00;;;;;;;;5053749;28;8793;-71
2023/08/06 16:43:01;;;;;;;;;1.67;1.00;;;;;;;;5053768;28;9486;-71
2023/08/06 16:45:26;;;;;;;;;2.33;2.00;;;;;;;;5053688;28;8791;-71
2023/08/06 16:47:52;;;;;;;;;4.67;1.33;;;;;;;;5072386;28;8789;-71
2023/08/06 16:50:17;;;;;;;;;2.00;2.00;;;;;;;;5073546;28;8810;-70
2023/08/06 16:52:42;;;;;;;;;5.33;1.00;;;;;;;;5073468;28;8839;-71
2023/08/06 16:55:08;;;;;;;;;6.33;1.67;;;;;;;;5055462;28;8955;-71
2023/08/06 16:57:33;;;;;;;;;1.33;1.33;;;;;;;;5062863;28;8851;-71
2023/08/06 16:59:59;;;;;;;;;5.33;1.67;;;;;;;;5053655;28;8862;-74
2023/08/06 17:02:24;;;;;;;;;0.00;0.00;;;;;;;;5053349;28;8791;-69
2023/08/06 17:04:49;;;;;;;;;1.00;1.00;;;;;;;;5053117;28;9522;-70
2023/08/06 17:07:14;;;;;;;;;4.00;3.00;;;;;;;;5053220;28;8788;-70
2023/08/06 17:09:40;;;;;;;;;2.00;1.00;;;;;;;;5034691;28;9553;-69
2023/08/06 17:12:05;;;;;;;;;5.33;4.00;;;;;;;;5052635;28;8796;-69
2023/08/06 17:14:31;;;;;;;;;2.00;1.33;;;;;;;;5053263;28;8791;-68
2023/08/06 17:16:56;;;;;;;;;3.67;2.67;;;;;;;;5064142;28;8809;-68
2023/08/06 17:19:21;;;;;;;;;2.00;2.00;;;;;;;;5072883;28;8793;-69
2023/08/06 17:21:46;;;;;;;;;2.00;2.00;;;;;;;;5072950;28;9496;-68
2023/08/06 17:24:12;;;;;;;;;4.00;3.00;;;;;;;;5072668;28;8809;-69
2023/08/06 17:26:37;;;;;;;;;5.33;2.00;;;;;;;;5072658;28;8902;-69
2023/08/06 17:29:02;;;;;;;;;1.00;1.00;;;;;;;;5072814;28;8797;-69
2023/08/06 17:31:27;;;;;;;;;1.00;1.00;;;;;;;;5054659;28;8841;-67
2023/08/06 17:33:53;;;;;;;;;4.67;2.00;;;;;;;;5072774;28;8874;-67
2023/08/06 17:36:18;;;;;;;;;3.00;1.33;;;;;;;;5072352;28;8842;-68
2023/08/06 17:38:44;;;;;;;;;1.00;1.00;;;;;;;;5072410;28;9551;-68
2023/08/06 17:41:09;;;;;;;;;4.00;1.33;;;;;;;;5072290;28;8925;-68
2023/08/06 17:43:34;;;;;;;;;5.67;2.00;;;;;;;;5072404;28;8782;-69
2023/08/06 17:46:00;;;;;;;;;4.00;1.00;;;;;;;;5072293;28;8817;-68
2023/08/06 17:48:25;;;;;;;;;2.67;2.67;;;;;;;;5072283;28;8793;-70
2023/08/06 17:50:50;;;;;;;;;5.00;4.00;;;;;;;;5054240;28;8882;-69
2023/08/06 17:53:15;;;;;;;;;6.33;5.33;;;;;;;;5071930;28;8789;-67
2023/08/06 17:55:41;;;;;;;;;4.00;3.00;;;;;;;;5054303;28;8833;-67
2023/08/06 17:58:06;;;;;;;;;7.00;5.00;;;;;;;;5071477;28;8798;-67
2023/08/06 18:00:32;;;;;;;;;4.00;3.00;;;;;;;;5071863;28;9556;-66
2023/08/06 18:02:57;;;;;;;;;6.00;4.00;;;;;;;;5071757;28;8798;-66
2023/08/06 18:05:22;;;;;;;;;6.00;5.00;;;;;;;;5053555;28;9529;-67
2023/08/06 18:07:48;;;;;;;;;8.00;3.00;;;;;;;;5071308;28;8806;-67
2023/08/06 18:10:13;;;;;;;;;6.00;5.00;;;;;;;;5071424;28;8840;-68
2023/08/06 18:12:42;;;;;;;;;7.00;4.33;;;;;;;;5071211;28;8804;-66
2023/08/06 18:15:07;;;;;;;;;6.00;4.00;;;;;;;;5071218;28;9647;-67
2023/08/06 18:17:32;;;;;;;;;3.67;3.00;;;;;;;;5071148;28;8920;-68
2023/08/06 18:19:58;;;;;;;;;4.00;3.33;;;;;;;;5070602;28;8782;-67
2023/08/06 18:22:23;;;;;;;;;6.33;4.00;;;;;;;;5071228;28;8811;-67
2023/08/06 18:24:49;;;;;;;;;6.67;5.00;;;;;;;;5053952;28;8894;-68
2023/08/06 18:27:17;;;;;;;;;5.00;4.00;;;;;;;;5053589;28;8812;-70
2023/08/06 18:29:43;;;;;;;;;6.50;5.50;;;;;;;;5071566;28;8794;-68
2023/08/06 18:32:08;;;;;;;;;3.75;3.00;;;;;;;;5071542;28;9017;-72
2023/08/06 18:34:34;;;;;;;;;7.00;6.00;;;;;;;;5053453;28;8928;-72
2023/08/06 18:37:00;;;;;;;;;10.33;4.33;;;;;;;;5071433;28;8826;-72
2023/08/06 18:39:25;;;;;;;;;5.00;3.67;;;;;;;;5071286;28;8787;-71
2023/08/06 18:41:51;;;;;;;;;9.00;5.00;;;;;;;;5070090;28;8794;-68
2023/08/06 18:44:16;;;;;;;;;5.00;3.00;;;;;;;;5069868;28;8990;-74
2023/08/06 18:46:41;;;;;;;;;5.33;4.33;;;;;;;;5070272;28;8820;-70
2023/08/06 18:49:07;;;;;;;;;4.67;4.67;;;;;;;;5070470;28;8782;-71
2023/08/06 18:51:32;;;;;;;;;6.00;5.00;;;;;;;;5070322;28;8912;-74
2023/08/06 18:53:58;;;;;;;;;10.00;6.00;;;;;;;;5070402;28;8798;-71
2023/08/06 18:56:23;;;;;;;;;8.33;5.33;;;;;;;;5070217;28;8888;-69
2023/08/06 18:58:48;;;;;;;;;7.00;4.33;;;;;;;;5069856;28;8881;-73
2023/08/06 19:01:13;;;;;;;;;3.67;3.67;;;;;;;;5070111;28;8840;-74
2023/08/06 19:03:39;;;;;;;;;6.67;5.00;;;;;;;;5052879;28;8886;-75
2023/08/06 19:06:06;;;;;;;;;7.33;3.00;;;;;;;;5070838;28;8924;-74
2023/08/06 19:08:31;;;;;;;;;5.33;4.33;;;;;;;;5070762;28;8814;-73
2023/08/06 19:10:56;;;;;;;;;5.33;4.67;;;;;;;;5070693;28;9241;-73
2023/08/06 19:13:21;;;;;;;;;6.50;4.75;;;;;;;;5070810;28;8782;-75
2023/08/06 19:15:48;;;;;;;;;6.50;4.50;;;;;;;;5070440;28;8793;-77
2023/08/06 19:18:14;;;;;;;;;6.00;5.00;;;;;;;;5070785;28;8797;-79
2023/08/06 19:20:42;;;;;;;;;4.33;3.33;;;;;;;;5070641;28;9271;-73
2023/08/06 19:23:08;;;;;;;;;5.00;4.00;;;;;;;;5070428;28;8825;-74
2023/08/06 19:25:42;;;;;;;;;4.67;3.67;;;;;;;;5070529;28;9408;-76
2023/08/06 19:28:10;;;;;;;;;8.25;5.25;;;;;;;;5052752;28;9364;-72
2023/08/06 19:30:39;;;;;;;;;7.67;3.67;;;;;;;;5052510;28;10080;-72
2023/08/06 19:33:05;;;;;;;;;5.00;2.00;;;;;;;;5070381;28;9426;-76
2023/08/06 19:35:30;;;;;;;;;7.33;4.67;;;;;;;;5070062;28;9400;-71
2023/08/06 19:37:55;;;;;;;;;4.33;3.00;;;;;;;;5069119;28;8801;-73
2023/08/06 19:40:20;;;;;;;;;7.00;6.33;;;;;;;;5069869;28;8770;-75
2023/08/06 19:42:46;;;;;;;;;8.00;5.33;;;;;;;;5048212;28;8838;-72
2023/08/06 19:45:11;;;;;;;;;8.33;5.33;;;;;;;;5049900;28;8865;-72
2023/08/06 19:47:36;;;;;;;;;5.33;5.00;;;;;;;;5067045;28;8916;-73
2023/08/06 19:50:01;;;;;;;;;5.33;4.33;;;;;;;;5070222;28;8806;-71
2023/08/06 19:52:27;;;;;;;;;4.00;4.00;;;;;;;;5070260;28;8799;-72
2023/08/06 19:54:53;;;;;;;;;2.00;2.00;;;;;;;;5069870;28;8806;-66
2023/08/06 19:57:19;;;;;;;;;5.00;4.67;;;;;;;;5069405;28;9199;-67
2023/08/06 19:59:45;;;;;;;;;6.00;4.00;;;;;;;;5051606;28;8806;-71
2023/08/06 20:02:10;;;;;;;;;6.67;5.33;;;;;;;;5069665;28;9285;-68
2023/08/06 20:04:35;;;;;;;;;6.33;3.33;;;;;;;;5067327;28;8879;-69
2023/08/06 20:07:01;;;;;;;;;12.33;7.00;;;;;;;;5069649;28;8789;-69
2023/08/06 20:09:26;;;;;;;;;6.00;6.00;;;;;;;;5051567;28;8884;-69
2023/08/06 20:11:51;;;;;;;;;6.00;3.00;;;;;;;;5069522;28;8886;-73
2023/08/06 20:14:16;;;;;;;;;4.67;3.00;;;;;;;;5070303;28;8782;-72
2023/08/06 20:16:42;;;;;;;;;8.00;6.00;;;;;;;;5069782;28;8880;-73
2023/08/06 20:19:07;;;;;;;;;4.33;4.00;;;;;;;;5070052;28;9602;-73
2023/08/06 20:21:32;;;;;;;;;3.67;3.00;;;;;;;;5070012;28;8912;-70
2023/08/06 20:23:57;;;;;;;;;7.00;4.00;;;;;;;;5069849;28;8831;-73
2023/08/06 20:26:24;;;;;;;;;5.33;4.00;;;;;;;;5070051;28;8890;-75
2023/08/06 20:28:49;;;;;;;;;7.00;3.00;;;;;;;;5069943;28;8805;-71
2023/08/06 20:31:14;;;;;;;;;5.00;4.00;;;;;;;;5069294;28;9283;-71
2023/08/06 20:33:39;;;;;;;;;3.00;3.00;;;;;;;;5069827;28;8956;-72
2023/08/06 20:36:05;;;;;;;;;7.75;5.00;;;;;;;;5068366;28;8826;-72
2023/08/06 20:38:30;;;;;;;;;6.67;6.33;;;;;;;;5069519;28;8838;-72
2023/08/06 20:40:55;;;;;;;;;5.33;3.00;;;;;;;;5069252;28;8794;-75
2023/08/06 20:43:21;;;;;;;;;12.33;4.00;;;;;;;;5070363;28;8782;-74
2023/08/06 20:45:56;;;;;;;;;4.33;4.00;;;;;;;;5071519;28;8786;-74
2023/08/06 20:48:22;;;;;;;;;2.67;1.67;;;;;;;;5071984;28;8887;-73
2023/08/06 20:50:47;;;;;;;;;3.33;3.00;;;;;;;;5072510;28;10105;-73
2023/08/06 20:53:12;;;;;;;;;7.00;4.00;;;;;;;;5072515;28;8800;-73
2023/08/06 20:55:38;;;;;;;;;4.33;4.33;;;;;;;;5001209;28;11136;-71
2023/08/06 20:58:03;;;;;;;;;4.67;4.67;;;;;;;;5051265;28;8833;-69
2023/08/06 21:00:28;;;;;;;;;8.75;5.00;;;;;;;;5072750;28;8877;-67
2023/08/06 21:02:54;;;;;;;;;6.00;6.00;;;;;;;;5054948;28;8810;-70
2023/08/06 21:05:19;;;;;;;;;7.33;5.00;;;;;;;;5072748;28;8798;-69
2023/08/06 21:07:44;;;;;;;;;3.33;3.33;;;;;;;;5072768;28;8821;-69
2023/08/06 21:10:09;;;;;;;;;4.67;4.67;;;;;;;;5072427;28;8789;-66
2023/08/06 21:12:35;;;;;;;;;9.00;4.00;;;;;;;;5072747;28;8817;-67
2023/08/06 21:15:00;;;;;;;;;6.00;4.00;;;;;;;;5072243;28;8829;-67
2023/08/06 21:17:25;;;;;;;;;5.67;4.67;;;;;;;;5072598;28;8810;-68
2023/08/06 21:19:50;;;;;;;;;7.33;5.00;;;;;;;;5072450;28;8808;-65
2023/08/06 21:22:16;;;;;;;;;5.00;4.00;;;;;;;;5072383;28;8789;-66
2023/08/06 21:24:41;;;;;;;;;6.00;4.00;;;;;;;;4974471;28;11032;-66
2023/08/06 21:27:06;;;;;;;;;8.67;3.00;;;;;;;;5039844;28;8825;-67
2023/08/06 21:29:32;;;;;;;;;7.00;5.00;;;;;;;;5063341;28;8792;-65
2023/08/06 21:31:57;;;;;;;;;9.00;5.00;;;;;;;;5053688;28;8918;-67
2023/08/06 21:34:22;;;;;;;;;4.67;4.00;;;;;;;;5052627;28;8800;-67
2023/08/06 21:36:50;;;;;;;;;4.00;2.33;;;;;;;;5050909;28;8836;-66
2023/08/06 21:39:15;;;;;;;;;5.00;3.00;;;;;;;;5052718;28;8795;-67
2023/08/06 21:41:40;;;;;;;;;5.00;4.67;;;;;;;;5052582;28;9253;-67
2023/08/06 21:44:05;;;;;;;;;5.33;4.00;;;;;;;;5052535;28;8796;-66
2023/08/06 21:46:31;;;;;;;;;5.67;4.00;;;;;;;;5052552;28;8992;-67
2023/08/06 21:48:57;;;;;;;;;6.33;4.00;;;;;;;;5034512;28;8808;-66
2023/08/06 21:51:22;;;;;;;;;5.33;5.00;;;;;;;;5052321;28;8807;-66
2023/08/06 21:53:48;;;;;;;;;5.00;5.00;;;;;;;;5034472;28;9232;-67
2023/08/06 21:56:13;;;;;;;;;7.25;4.00;;;;;;;;5034384;28;8844;-67
2023/08/06 21:58:39;;;;;;;;;5.67;4.33;;;;;;;;5052273;28;8827;-67
2023/08/06 22:01:05;;;;;;;;;5.33;4.00;;;;;;;;5052217;28;8787;-66
2023/08/06 22:03:32;;;;;;;;;5.33;5.00;;;;;;;;5052203;28;8896;-67
2023/08/06 22:05:58;;;;;;;;;4.67;2.67;;;;;;;;5052024;28;9313;-66
2023/08/06 22:08:23;;;;;;;;;4.25;4.25;;;;;;;;5052221;28;9306;-67
2023/08/06 22:10:49;;;;;;;;;6.67;4.00;;;;;;;;5052002;28;8812;-67
2023/08/06 22:13:14;;;;;;;;;7.00;5.00;;;;;;;;5034120;28;8828;-66
2023/08/06 22:15:39;;;;;;;;;6.00;5.00;;;;;;;;5052034;28;8867;-67
2023/08/06 22:18:06;;;;;;;;;4.33;4.00;;;;;;;;5052041;28;8776;-66
2023/08/06 22:20:31;;;;;;;;;5.50;4.50;;;;;;;;5051896;28;8914;-65
2023/08/06 22:22:56;;;;;;;;;7.00;5.00;;;;;;;;5051705;28;9454;-66
